This is the latest recevied packets stored in our database for station/object EDFM. If no packets are shown the sender has not sent any packets the latest 24 hours.

If you compare the raw packets with similar data from other websites it may differ (especially the path), the reason is that we are not collecting packets from the same APRS-IS servers. Each APRS-IS server performes duplicate filtering, and which packet that is considered to be a duplicate may differ depending on which APRS-IS server you receive your data from.

1624532739: DK6PX>APRS,TCPIP*,qAC,T2GYOR:;EDFM *201218z4928.35N/00831.00E^ EDFM 241050Z 34005KT 290V020 9999 FEW010 BKN016 OVC024 19/17 Q1017

1624536339: DK6PX>APRS,TCPIP*,qAC,T2NORWAY:;EDFM *201218z4928.35N/00831.00E^ EDFM 241150Z 04008KT 9999 FEW011 SCT023 BKN068CB 19/16 Q1017

1624539939: DK6PX>APRS,TCPIP*,qAC,T2SWEDEN:;EDFM *201218z4928.35N/00831.00E^ EDFM 241250Z 01008KT 330V050 9999 FEW012 SCT023 21/16 Q1017

1624543539: DK6PX>APRS,TCPIP*,qAC,T2CSNGRAD:;EDFM *201218z4928.35N/00831.00E^ EDFM 241350Z 04008KT 9999 FEW009 SCT023 BKN085 21/15 Q1017

1624547139: DK6PX>APRS,TCPIP*,qAC,T2MAZURY:;EDFM *201218z4928.35N/00831.00E^ EDFM 241450Z 33007KT 310V010 3100 TSRA BKN020CB 18/16 Q1017

1624550739: DK6PX>APRS,TCPIP*,qAC,T2POLC:;EDFM *201218z4928.35N/00831.00E^ EDFM 241550Z 35005KT 300V020 9999 FEW007 SCT019 19/18 Q1017

1624554339: DK6PX>APRS,TCPIP*,qAC,T2UK:;EDFM *201218z4928.35N/00831.00E^ EDFM 241620Z 34007KT 9999 FEW007 SCT020 BKN074 19/17 Q1017

1624557939: DK6PX>APRS,TCPIP*,qAC,T2SP:;EDFM *201218z4928.35N/00831.00E^ EDFM 241750Z 32005KT 9999 SCT008 BKN027TCU 19/17 Q1017

1624561539: DK6PX>APRS,TCPIP*,qAC,T2LONDON:;EDFM *201218z4928.35N/00831.00E^ EDFM 241820Z 32005KT 280V340 9999 SCT008 BKN015 OVC026 19/17 Q1017

1624565142: DK6PX>APRS,TCPIP*,qAC,T2CSNGRAD:;EDFM *201218z4928.35N/00831.00E^ EDFM 241820Z 32005KT 280V340 9999 SCT008 BKN015 OVC026 19/17 Q1017

1624568739: DK6PX>APRS,TCPIP*,qAC,T2POLAND:;EDFM *201218z4928.35N/00831.00E^ EDFM 241820Z 32005KT 280V340 9999 SCT008 BKN015 OVC026 19/17 Q1017

1624572339: DK6PX>APRS,TCPIP*,qAC,T2ROMANIA:;EDFM *201218z4928.35N/00831.00E^ EDFM 241820Z 32005KT 280V340 9999 SCT008 BKN015 OVC026 19/17 Q1017

1624575939: DK6PX>APRS,TCPIP*,qAC,T2HUN:;EDFM *201218z4928.35N/00831.00E^ EDFM 241820Z 32005KT 280V340 9999 SCT008 BKN015 OVC026 19/17 Q1017

1624579539: DK6PX>APRS,TCPIP*,qAC,T2FRA:;EDFM *201218z4928.35N/00831.00E^ EDFM 241820Z 32005KT 280V340 9999 SCT008 BKN015 OVC026 19/17 Q1017

1624583139: DK6PX>APRS,TCPIP*,qAC,T2STRAS:;EDFM *201218z4928.35N/00831.00E^ EDFM 241820Z 32005KT 280V340 9999 SCT008 BKN015 OVC026 19/17 Q1017

1624586738: DK6PX>APRS,TCPIP*,qAC,T2LEIPZIG:;EDFM *201218z4928.35N/00831.00E^ EDFM 241820Z 32005KT 280V340 9999 SCT008 BKN015 OVC026 19/17 Q1017

1624590339: DK6PX>APRS,TCPIP*,qAC,T2BELGIUM:;EDFM *201218z4928.35N/00831.00E^ EDFM 241820Z 32005KT 280V340 9999 SCT008 BKN015 OVC026 19/17 Q1017

1624593939: DK6PX>APRS,TCPIP*,qAC,T2FFL:;EDFM *201218z4928.35N/00831.00E^ EDFM 250350Z 28004KT 260V320 6000 -RA FEW010 BKN013 OVC019 17/16 Q1018

1624597538: DK6PX>APRS,TCPIP*,qAC,T2NUERNBG:;EDFM *201218z4928.35N/00831.00E^ EDFM 250450Z 27003KT 7000 -RA FEW005 BKN014 17/16 Q1018

1624601139: DK6PX>APRS,TCPIP*,qAC,T2FRA:;EDFM *201218z4928.35N/00831.00E^ EDFM 250550Z 31005KT 280V340 8000 -RA SCT008 OVC014 17/15 Q1018

1624604738: DK6PX>APRS,TCPIP*,qAC,T2NUERNBG:;EDFM *201218z4928.35N/00831.00E^ EDFM 250650Z VRB03KT 8000 FEW017 OVC022 18/15 Q1018

1624608339: DK6PX>APRS,TCPIP*,qAC,T2GYOR:;EDFM *201218z4928.35N/00831.00E^ EDFM 250750Z VRB03KT 8000 -RA OVC013 18/15 Q1019

1624611938: DK6PX>APRS,TCPIP*,qAC,T2KA:;EDFM *201218z4928.35N/00831.00E^ EDFM 250850Z 32006KT 8000 SCT016 BKN032 18/15 Q1019

1624615539: DK6PX>APRS,TCPIP*,qAC,T2SWEDEN:;EDFM *201218z4928.35N/00831.00E^ EDFM 250950Z 30005KT 260V340 9999 BKN018 OVC026 19/15 Q1019

Initial position
Current position
Ruler